Time;durP1;ratioP1;P1;durP2;ratioP2;P2;SDS_P1;SDS_P2;PMS_P1;PMS_P2;Temp;Humidity;BMP_temperature;BMP_pressure;BME280_temperature;BME280_humidity;BME280_pressure;Samples;Min_cycle;Max_cycle;Signal;HPM_P1;HPM_P2
2023/03/22 00:01:33;;;;;;;16.77;13.23;;;;;;;5.59;98.71;95741.81;4967219;28;20033;-71
2023/03/22 00:03:59;;;;;;;19.65;13.43;;;;;;;5.54;98.25;95738.72;4969514;28;20037;-71
2023/03/22 00:06:25;;;;;;;19.70;15.55;;;;;;;5.50;98.87;95742.50;4969369;28;20054;-73
2023/03/22 00:08:52;;;;;;;19.42;15.70;;;;;;;5.44;99.17;95739.38;4972327;28;20027;-71
2023/03/22 00:11:24;;;;;;;15.25;12.68;;;;;;;5.44;98.70;95733.31;4947483;28;20054;-71
2023/03/22 00:13:51;;;;;;;20.52;13.85;;;;;;;5.43;99.06;95729.88;4968012;28;20395;-70
2023/03/22 00:16:17;;;;;;;17.80;12.70;;;;;;;5.41;98.45;95731.72;4973124;28;20019;-70
2023/03/22 00:18:42;;;;;;;21.30;13.85;;;;;;;5.37;98.58;95727.69;4971011;28;20078;-70
2023/03/22 00:21:13;;;;;;;25.45;21.42;;;;;;;5.30;99.25;95721.22;4966991;28;20046;-71
2023/03/22 00:23:39;;;;;;;31.67;25.15;;;;;;;5.28;98.75;95726.56;4964171;28;20041;-73
2023/03/22 00:26:04;;;;;;;30.35;22.70;;;;;;;5.25;99.36;95725.94;4970425;28;20138;-72
2023/03/22 00:28:30;;;;;;;25.77;20.67;;;;;;;5.22;99.74;95724.38;4975307;28;20097;-73
2023/03/22 00:31:00;;;;;;;31.15;24.35;;;;;;;5.19;100.00;95716.78;4969258;28;20035;-73
2023/03/22 00:33:30;;;;;;;38.25;28.80;;;;;;;5.23;99.16;95720.81;4972732;28;20089;-72
2023/03/22 00:36:01;;;;;;;40.65;27.83;;;;;;;5.23;99.08;95722.63;4969208;28;20043;-72
2023/03/22 00:38:35;;;;;;;43.22;29.00;;;;;;;5.20;99.00;95722.84;4965538;28;20062;-72
2023/03/22 00:41:17;;;;;;;44.42;29.80;;;;;;;5.18;99.09;95714.25;4970554;28;20062;-72
2023/03/22 00:43:44;;;;;;;51.55;33.22;;;;;;;5.12;99.30;95713.75;4962736;28;20034;-72
2023/03/22 00:46:10;;;;;;;55.28;35.40;;;;;;;5.11;99.79;95713.88;4967301;28;20122;-72
2023/03/22 00:48:36;;;;;;;32.08;23.02;;;;;;;5.11;100.00;95717.31;4968147;28;20130;-72
2023/03/22 00:51:01;;;;;;;27.95;18.52;;;;;;;5.11;99.08;95714.69;4972094;28;20054;-72
2023/03/22 00:53:28;;;;;;;31.02;21.45;;;;;;;5.10;98.84;95718.25;4971493;28;20125;-72
2023/03/22 00:55:55;;;;;;;21.98;17.10;;;;;;;5.10;99.13;95715.63;4949533;28;20054;-72
2023/03/22 00:58:20;;;;;;;20.77;15.48;;;;;;;5.07;99.28;95713.25;4970823;28;20114;-72
2023/03/22 01:00:47;;;;;;;18.55;13.70;;;;;;;5.00;99.68;95709.41;4957693;28;20113;-72
2023/03/22 01:03:12;;;;;;;17.40;12.07;;;;;;;4.96;99.96;95707.94;4960050;28;20992;-72
2023/03/22 01:05:38;;;;;;;13.25;10.80;;;;;;;4.93;100.00;95713.38;4961437;28;20126;-73
2023/03/22 01:08:07;;;;;;;16.35;10.52;;;;;;;4.92;100.00;95709.09;4966093;28;20023;-72
2023/03/22 01:10:37;;;;;;;13.10;10.85;;;;;;;4.96;100.00;95713.16;4966916;28;20035;-72
2023/03/22 01:13:04;;;;;;;28.83;20.17;;;;;;;4.97;99.65;95701.75;4969488;28;20042;-72
2023/03/22 01:15:29;;;;;;;35.47;24.08;;;;;;;4.93;100.00;95700.31;4969262;28;20030;-72
2023/03/22 01:17:55;;;;;;;27.30;15.63;;;;;;;4.86;100.00;95689.47;4955658;28;20038;-72
2023/03/22 01:20:21;;;;;;;15.35;11.18;;;;;;;4.78;100.00;95684.81;4960767;28;20099;-72
2023/03/22 01:22:46;;;;;;;13.15;8.52;;;;;;;4.75;100.00;95681.56;4966155;28;20422;-72
2023/03/22 01:25:11;;;;;;;10.93;7.50;;;;;;;4.73;100.00;95682.50;4963738;28;20117;-72
2023/03/22 01:27:37;;;;;;;12.85;7.60;;;;;;;4.73;100.00;95684.28;4970089;28;20062;-72
2023/03/22 01:30:04;;;;;;;13.70;9.05;;;;;;;4.75;100.00;95682.38;4973247;28;20026;-72
2023/03/22 01:32:30;;;;;;;6.88;5.95;;;;;;;4.77;100.00;95677.94;4960619;28;20106;-72
2023/03/22 01:34:55;;;;;;;9.63;7.70;;;;;;;4.73;100.00;95676.44;4969354;28;20062;-72
2023/03/22 01:37:24;;;;;;;10.57;7.65;;;;;;;4.65;100.00;95665.72;4965524;28;20069;-72
2023/03/22 01:39:49;;;;;;;8.68;6.68;;;;;;;4.57;100.00;95669.69;4965677;28;20503;-72
2023/03/22 01:42:16;;;;;;;9.38;7.53;;;;;;;4.55;100.00;95673.34;4969435;28;20046;-72
2023/03/22 01:45:03;;;;;;;12.57;7.30;;;;;;;4.59;100.00;95678.25;4973481;28;20038;-73
2023/03/22 01:47:29;;;;;;;11.60;7.68;;;;;;;4.68;100.00;95675.94;4974686;28;20046;-72
2023/03/22 01:49:54;;;;;;;9.27;7.43;;;;;;;4.58;100.00;95680.94;4968185;28;20506;-72
2023/03/22 01:52:20;;;;;;;8.85;7.22;;;;;;;4.57;100.00;95685.34;4970755;28;20035;-72
2023/03/22 01:54:49;;;;;;;10.25;7.10;;;;;;;4.56;100.00;95683.69;4962923;28;20130;-72
2023/03/22 01:57:15;;;;;;;7.47;6.75;;;;;;;4.53;100.00;95683.91;4964179;28;20091;-72
2023/03/22 01:59:41;;;;;;;8.52;6.63;;;;;;;4.50;100.00;95680.66;4969112;28;20038;-72
2023/03/22 02:02:09;;;;;;;8.30;7.32;;;;;;;4.49;100.00;95682.41;4971286;28;20526;-72
2023/03/22 02:04:38;;;;;;;10.02;7.75;;;;;;;4.50;100.00;95678.03;4965589;28;20498;-72
2023/03/22 02:07:14;;;;;;;8.15;7.25;;;;;;;4.48;100.00;95678.13;4965171;28;20026;-72
2023/03/22 02:09:41;;;;;;;9.48;6.55;;;;;;;4.44;100.00;95680.13;4969665;28;20041;-72
2023/03/22 02:12:25;;;;;;;7.63;7.03;;;;;;;4.40;100.00;95678.66;4972830;28;20476;-72
2023/03/22 02:15:11;;;;;;;7.28;6.63;;;;;;;4.36;100.00;95676.38;4971706;28;20043;-72
2023/03/22 02:17:42;;;;;;;10.38;8.45;;;;;;;4.30;100.00;95681.03;4966495;28;20045;-72
2023/03/22 02:20:37;;;;;;;10.48;9.35;;;;;;;4.28;100.00;95685.53;4972921;28;20163;-72
2023/03/22 02:23:33;;;;;;;9.00;7.75;;;;;;;4.20;100.00;95677.41;4971697;28;20063;-72
2023/03/22 02:26:20;;;;;;;6.43;5.90;;;;;;;4.17;100.00;95677.63;4968116;28;20034;-72
2023/03/22 02:29:12;;;;;;;5.55;4.88;;;;;;;4.19;100.00;95678.34;4976410;28;20046;-72
2023/03/22 02:32:18;;;;;;;8.43;6.68;;;;;;;4.26;100.00;95669.16;4967983;28;20027;-72
2023/03/22 02:35:01;;;;;;;8.35;6.47;;;;;;;4.32;100.00;95670.53;4966198;28;20054;-72
2023/03/22 02:38:02;;;;;;;6.90;6.20;;;;;;;4.28;100.00;95667.28;4964194;28;20046;-72
2023/03/22 02:40:43;;;;;;;8.88;5.90;;;;;;;4.23;100.00;95665.94;4967120;28;20071;-72
2023/03/22 02:43:20;;;;;;;7.50;5.28;;;;;;;4.12;100.00;95667.50;4975373;28;20043;-72
2023/03/22 02:46:01;;;;;;;5.20;4.70;;;;;;;4.11;100.00;95659.78;4968846;28;20065;-72
2023/03/22 02:48:33;;;;;;;5.07;4.30;;;;;;;4.44;100.00;95661.88;4969128;28;20063;-72
2023/03/22 02:51:04;;;;;;;5.00;3.53;;;;;;;4.35;100.00;95670.31;4964581;28;20546;-72
2023/03/22 02:53:47;;;;;;;5.00;4.50;;;;;;;4.27;100.00;95662.19;4966417;28;20030;-73
2023/03/22 02:56:16;;;;;;;4.82;4.30;;;;;;;4.19;100.00;95662.72;4962592;28;20083;-72
2023/03/22 02:58:45;;;;;;;5.80;4.90;;;;;;;4.14;100.00;95667.41;4972026;28;20023;-72
2023/03/22 03:01:36;;;;;;;5.13;4.50;;;;;;;4.10;100.00;95661.56;4970604;28;20035;-72
2023/03/22 03:04:06;;;;;;;4.50;3.97;;;;;;;4.09;100.00;95672.06;4968612;28;20030;-72
2023/03/22 03:06:38;;;;;;;4.43;3.95;;;;;;;4.05;100.00;95674.06;4965062;28;20109;-72
2023/03/22 03:09:05;;;;;;;4.20;3.78;;;;;;;4.06;100.00;95667.91;4969765;28;20035;-72
2023/03/22 03:11:31;;;;;;;4.30;3.88;;;;;;;4.08;100.00;95671.25;4963436;28;20026;-73
2023/03/22 03:13:56;;;;;;;4.18;3.75;;;;;;;4.09;100.00;95662.50;4963852;28;20064;-72
2023/03/22 03:16:26;;;;;;;5.40;3.35;;;;;;;4.05;100.00;95662.78;4968225;28;20494;-73
2023/03/22 03:18:57;;;;;;;3.95;3.65;;;;;;;3.95;100.00;95663.41;4959865;28;20030;-72
2023/03/22 03:21:41;;;;;;;7.93;6.75;;;;;;;3.94;100.00;95655.69;4969785;28;20471;-72
2023/03/22 03:24:30;;;;;;;5.90;4.70;;;;;;;3.86;100.00;95664.84;4972279;28;20034;-72
2023/03/22 03:27:12;;;;;;;4.72;4.07;;;;;;;3.86;100.00;95667.47;4966209;28;20106;-72
2023/03/22 03:29:43;;;;;;;3.95;3.65;;;;;;;3.92;100.00;95665.38;4959309;28;20522;-72
2023/03/22 03:32:34;;;;;;;6.88;3.88;;;;;;;3.92;100.00;95661.03;4964215;28;20451;-72
2023/03/22 03:35:09;;;;;;;5.18;4.68;;;;;;;3.86;100.00;95664.00;4957031;28;20047;-73
2023/03/22 03:37:47;;;;;;;6.70;5.90;;;;;;;3.85;100.00;95667.53;4973299;28;20102;-72
2023/03/22 03:40:18;;;;;;;7.40;5.93;;;;;;;3.88;100.00;95659.56;4966498;28;20050;-73
2023/03/22 03:42:48;;;;;;;7.38;6.63;;;;;;;3.90;100.00;95660.28;4968733;28;20449;-72
2023/03/22 03:45:17;;;;;;;17.27;11.98;;;;;;;3.98;100.00;95663.22;4969739;28;20034;-72
2023/03/22 03:47:45;;;;;;;10.57;9.35;;;;;;;3.95;100.00;95667.78;4967495;28;20615;-72
2023/03/22 03:50:14;;;;;;;10.90;9.52;;;;;;;3.90;100.00;95665.50;4968416;28;20109;-72
2023/03/22 03:52:40;;;;;;;5.32;4.88;;;;;;;3.83;100.00;95664.22;4959371;28;20019;-72
2023/03/22 03:55:06;;;;;;;12.15;10.52;;;;;;;3.82;100.00;95663.41;4974147;28;20023;-72
2023/03/22 03:57:31;;;;;;;13.70;12.35;;;;;;;3.81;100.00;95664.34;4973726;28;20018;-72
2023/03/22 03:59:56;;;;;;;11.90;8.90;;;;;;;3.81;100.00;95668.69;4964033;28;20042;-72
2023/03/22 04:02:22;;;;;;;8.52;7.57;;;;;;;3.80;100.00;95661.81;4968723;28;20098;-72
2023/03/22 04:04:47;;;;;;;14.35;12.98;;;;;;;3.82;100.00;95658.19;4973334;28;20027;-72
2023/03/22 04:07:13;;;;;;;12.25;11.15;;;;;;;3.87;100.00;95655.28;4973128;28;20030;-72
2023/03/22 04:09:39;;;;;;;12.50;11.40;;;;;;;3.83;100.00;95659.84;4974547;28;20407;-72
2023/03/22 04:12:05;;;;;;;8.95;8.15;;;;;;;3.75;100.00;95656.91;4969695;28;20027;-72
2023/03/22 04:14:30;;;;;;;8.93;6.40;;;;;;;3.71;100.00;95658.88;4954216;28;20101;-72
2023/03/22 04:16:56;;;;;;;4.30;4.05;;;;;;;3.72;100.00;95663.16;4962867;28;20046;-71
2023/03/22 04:19:22;;;;;;;4.82;4.43;;;;;;;3.82;100.00;95667.75;4968607;28;20027;-71
2023/03/22 04:21:48;;;;;;;4.57;4.15;;;;;;;3.85;100.00;95670.16;4961115;28;20042;-71
2023/03/22 04:24:14;;;;;;;5.13;4.57;;;;;;;3.85;100.00;95664.94;4965851;28;20035;-71
2023/03/22 04:26:40;;;;;;;4.93;4.20;;;;;;;3.82;100.00;95662.53;4957453;28;20059;-71
2023/03/22 04:29:05;;;;;;;4.43;4.03;;;;;;;3.78;100.00;95661.09;4962979;28;20448;-71
2023/03/22 04:31:32;;;;;;;4.35;4.00;;;;;;;3.78;100.00;95669.75;4967616;28;20018;-71
2023/03/22 04:34:04;;;;;;;6.05;4.25;;;;;;;3.72;100.00;95667.53;4972157;28;20501;-71
2023/03/22 04:36:38;;;;;;;4.30;3.75;;;;;;;3.70;100.00;95670.25;4961929;28;20027;-71
2023/03/22 04:39:05;;;;;;;5.63;4.68;;;;;;;3.66;100.00;95666.19;4974472;28;20407;-71
2023/03/22 04:41:32;;;;;;;5.80;5.20;;;;;;;3.60;100.00;95669.16;4950815;28;20074;-71
2023/03/22 04:44:02;;;;;;;5.28;4.75;;;;;;;3.58;100.00;95664.06;4967080;28;20030;-71
2023/03/22 04:46:31;;;;;;;5.25;4.50;;;;;;;3.54;100.00;95670.41;4959703;28;20019;-71
2023/03/22 04:48:56;;;;;;;4.95;4.22;;;;;;;3.52;100.00;95672.25;4956780;28;20066;-70
2023/03/22 04:51:22;;;;;;;6.45;4.70;;;;;;;3.50;100.00;95668.09;4960644;28;20030;-72
2023/03/22 04:53:48;;;;;;;7.63;7.03;;;;;;;3.47;100.00;95666.50;4965735;28;20484;-71
2023/03/22 04:56:14;;;;;;;5.35;4.85;;;;;;;3.42;100.00;95666.81;4963912;28;20057;-71
2023/03/22 04:58:41;;;;;;;11.85;4.43;;;;;;;3.41;100.00;95669.50;4971101;28;20520;-70
2023/03/22 05:01:11;;;;;;;10.38;5.20;;;;;;;3.43;100.00;95671.09;4972515;28;20134;-70
2023/03/22 05:03:36;;;;;;;8.27;4.65;;;;;;;3.42;100.00;95666.81;4965487;28;20035;-71
2023/03/22 05:06:05;;;;;;;11.82;4.25;;;;;;;3.39;100.00;95666.19;4962823;28;20034;-71
2023/03/22 05:08:31;;;;;;;14.27;4.00;;;;;;;3.32;100.00;95663.13;4956825;28;20051;-71
2023/03/22 05:10:58;;;;;;;23.58;15.55;;;;;;;3.31;100.00;95669.28;4970269;28;20041;-71
2023/03/22 05:13:26;;;;;;;13.88;6.15;;;;;;;3.30;100.00;95659.78;4965667;28;20039;-71
2023/03/22 05:15:52;;;;;;;7.03;4.68;;;;;;;3.28;100.00;95672.06;4963478;28;20031;-73
2023/03/22 05:18:19;;;;;;;4.60;4.20;;;;;;;3.26;100.00;95676.53;4972812;28;20415;-71
2023/03/22 05:20:45;;;;;;;6.45;5.30;;;;;;;3.25;100.00;95678.28;4966970;28;20023;-72
2023/03/22 05:23:11;;;;;;;9.60;5.50;;;;;;;3.20;100.00;95676.91;4965025;28;20047;-71
2023/03/22 05:25:37;;;;;;;18.30;11.43;;;;;;;3.15;100.00;95672.84;4967174;28;20117;-72
2023/03/22 05:28:03;;;;;;;30.45;13.50;;;;;;;3.18;100.00;95678.78;4962838;28;20028;-71
2023/03/22 05:30:30;;;;;;;30.60;14.68;;;;;;;3.15;100.00;95674.63;4973269;28;20095;-74
2023/03/22 05:33:03;;;;;;;17.50;9.20;;;;;;;3.18;100.00;95670.97;4970143;28;20042;-73
2023/03/22 05:35:29;;;;;;;15.18;8.52;;;;;;;3.20;100.00;95669.94;4965824;28;20035;-72
2023/03/22 05:37:55;;;;;;;14.32;9.30;;;;;;;3.17;100.00;95666.69;4968338;28;20459;-70
2023/03/22 05:40:21;;;;;;;10.85;8.18;;;;;;;3.13;100.00;95679.91;4960679;28;20034;-73
2023/03/22 05:42:47;;;;;;;11.85;8.00;;;;;;;3.12;100.00;95675.63;4975869;28;20030;-73
2023/03/22 05:45:13;;;;;;;17.02;7.72;;;;;;;3.10;100.00;95666.28;4960021;28;20039;-73
2023/03/22 05:47:38;;;;;;;10.77;7.32;;;;;;;3.05;100.00;95669.16;4972693;28;20410;-73
2023/03/22 05:50:09;;;;;;;15.40;6.72;;;;;;;3.05;100.00;95663.94;4962316;28;20114;-74
2023/03/22 05:52:34;;;;;;;10.35;6.47;;;;;;;3.05;100.00;95669.16;4966970;28;20035;-74
2023/03/22 05:55:00;;;;;;;15.23;7.28;;;;;;;3.06;100.00;95665.63;4962187;28;20027;-74
2023/03/22 05:57:26;;;;;;;9.40;6.68;;;;;;;3.10;100.00;95667.09;4970288;28;20027;-74
2023/03/22 05:59:52;;;;;;;8.98;6.03;;;;;;;3.09;100.00;95670.63;4960410;28;20542;-74
2023/03/22 06:02:20;;;;;;;14.57;6.75;;;;;;;3.08;100.00;95673.31;4974127;28;20050;-74
2023/03/22 06:04:46;;;;;;;7.63;6.10;;;;;;;3.07;100.00;95669.88;4959762;28;20035;-74
2023/03/22 06:07:12;;;;;;;6.88;5.82;;;;;;;3.09;100.00;95667.19;4963891;28;20368;-74
2023/03/22 06:09:38;;;;;;;6.80;6.00;;;;;;;3.15;100.00;95667.63;4978563;28;20539;-74
2023/03/22 06:12:04;;;;;;;7.57;5.50;;;;;;;3.15;100.00;95672.00;4960823;28;20023;-73
2023/03/22 06:14:29;;;;;;;5.90;5.20;;;;;;;3.13;100.00;95674.69;4970719;28;20598;-72
2023/03/22 06:16:55;;;;;;;10.82;5.13;;;;;;;3.13;100.00;95679.91;4964832;28;20058;-74
2023/03/22 06:19:20;;;;;;;6.80;5.97;;;;;;;3.12;100.00;95680.84;4967357;28;20034;-73
2023/03/22 06:21:46;;;;;;;8.95;6.35;;;;;;;3.13;100.00;95679.91;4963751;28;20037;-73
2023/03/22 06:24:11;;;;;;;7.95;6.45;;;;;;;3.18;100.00;95683.97;4965041;28;20471;-74
2023/03/22 06:26:36;;;;;;;6.32;5.70;;;;;;;3.18;100.00;95687.44;4957425;28;20039;-73
2023/03/22 06:29:02;;;;;;;12.90;5.45;;;;;;;3.18;100.00;95694.38;4965979;28;20062;-74
2023/03/22 06:31:28;;;;;;;10.15;6.00;;;;;;;3.19;100.00;95686.50;4967291;28;20074;-74
2023/03/22 06:33:54;;;;;;;9.10;5.68;;;;;;;3.21;100.00;95686.41;4962231;28;20038;-74
2023/03/22 06:36:19;;;;;;;12.82;6.20;;;;;;;3.23;100.00;95682.75;4969889;28;20031;-74
2023/03/22 06:38:44;;;;;;;13.95;6.82;;;;;;;3.26;100.00;95686.94;4969036;28;20067;-75
2023/03/22 06:41:10;;;;;;;18.83;11.20;;;;;;;3.28;100.00;95685.91;4963087;28;20166;-74
2023/03/22 06:43:35;;;;;;;15.02;12.90;;;;;;;3.31;100.00;95687.50;4975153;28;20030;-74
2023/03/22 06:46:01;;;;;;;19.88;17.75;;;;;;;3.33;100.00;95680.41;4961713;28;20059;-74
2023/03/22 06:48:26;;;;;;;20.70;18.27;;;;;;;3.35;100.00;95682.94;4965305;28;20051;-75
2023/03/22 06:50:52;;;;;;;17.05;13.15;;;;;;;3.40;100.00;95681.69;4961640;28;20039;-75
2023/03/22 06:53:17;;;;;;;20.00;15.30;;;;;;;3.42;100.00;95681.59;4957694;28;20061;-74
2023/03/22 06:55:42;;;;;;;26.52;14.80;;;;;;;3.51;100.00;95680.19;4959732;28;20030;-74
2023/03/22 06:58:08;;;;;;;17.95;13.70;;;;;;;3.48;100.00;95685.59;4961678;28;20015;-74
2023/03/22 07:00:33;;;;;;;19.88;12.63;;;;;;;3.48;100.00;95691.59;4971157;28;20090;-75
2023/03/22 07:02:59;;;;;;;19.50;12.82;;;;;;;3.52;100.00;95689.66;4964677;28;20047;-73
2023/03/22 07:05:25;;;;;;;19.05;12.07;;;;;;;3.56;100.00;95693.72;4966700;28;20034;-74
2023/03/22 07:07:50;;;;;;;15.13;11.48;;;;;;;3.60;100.00;95699.56;4966989;28;20118;-72
2023/03/22 07:10:16;;;;;;;12.98;11.60;;;;;;;3.61;100.00;95688.22;4968126;28;20117;-72
2023/03/22 07:12:41;;;;;;;12.32;10.60;;;;;;;3.66;100.00;95680.94;4962109;28;20031;-73
2023/03/22 07:15:07;;;;;;;14.05;11.07;;;;;;;3.71;100.00;95684.06;4963152;28;20030;-73
2023/03/22 07:17:32;;;;;;;13.15;10.77;;;;;;;3.71;100.00;95690.13;4961755;28;20117;-74
2023/03/22 07:19:58;;;;;;;15.75;11.38;;;;;;;3.74;100.00;95681.28;4967062;28;20031;-72
2023/03/22 07:22:24;;;;;;;13.75;11.43;;;;;;;3.82;100.00;95685.97;4961315;28;20038;-70
2023/03/22 07:24:51;;;;;;;13.82;10.63;;;;;;;4.05;100.00;95673.22;4965893;28;20401;-70
2023/03/22 07:27:17;;;;;;;23.88;13.88;;;;;;;4.90;100.00;95677.06;4964073;28;20026;-72
2023/03/22 07:29:42;;;;;;;80.25;46.83;;;;;;;5.83;100.00;95673.91;4970152;28;20023;-70
2023/03/22 07:32:08;;;;;;;26.75;11.93;;;;;;;6.61;100.00;95670.75;4964328;28;20050;-71
2023/03/22 07:34:34;;;;;;;42.50;24.42;;;;;;;7.48;97.93;95671.06;4953529;28;20034;-70
2023/03/22 07:37:01;;;;;;;40.97;26.08;;;;;;;8.40;91.84;95669.69;4965267;28;20046;-70
2023/03/22 07:39:28;;;;;;;28.75;18.75;;;;;;;9.09;86.64;95668.25;4966482;28;20039;-71
2023/03/22 07:41:54;;;;;;;17.52;8.13;;;;;;;9.28;85.01;95671.91;4968999;28;20061;-70
2023/03/22 07:44:20;;;;;;;14.55;7.20;;;;;;;9.83;83.50;95676.69;4964526;28;20177;-71
2023/03/22 07:46:46;;;;;;;7.70;5.55;;;;;;;10.10;82.31;95679.59;4967428;28;20081;-70
2023/03/22 07:49:11;;;;;;;5.32;3.28;;;;;;;10.63;81.07;95675.69;4975438;28;20034;-71
2023/03/22 07:51:37;;;;;;;3.17;2.90;;;;;;;11.14;75.82;95675.34;4957629;28;20039;-72
2023/03/22 07:54:03;;;;;;;10.82;2.80;;;;;;;11.17;74.37;95675.91;4969321;28;20043;-71
2023/03/22 07:56:29;;;;;;;2.92;2.72;;;;;;;11.04;70.83;95684.09;4946304;28;20415;-70
2023/03/22 07:58:55;;;;;;;2.90;2.53;;;;;;;11.51;70.06;95687.66;4961646;28;20035;-71
2023/03/22 08:01:20;;;;;;;2.83;2.63;;;;;;;11.96;67.19;95685.94;4965652;28;20058;-71
2023/03/22 08:03:46;;;;;;;4.93;2.30;;;;;;;12.43;68.43;95684.03;4971949;28;20026;-71
2023/03/22 08:06:12;;;;;;;4.82;2.35;;;;;;;12.90;63.97;95690.81;4940403;28;20035;-71
2023/03/22 08:08:37;;;;;;;2.20;2.00;;;;;;;13.23;64.15;95696.25;4956439;28;20658;-72
2023/03/22 08:11:04;;;;;;;3.35;2.10;;;;;;;13.44;61.57;95700.31;4959868;28;20110;-72
2023/03/22 08:13:30;;;;;;;2.47;1.90;;;;;;;13.71;59.51;95707.19;4960165;28;20037;-72
2023/03/22 08:15:55;;;;;;;1.90;1.80;;;;;;;13.87;60.30;95711.69;4965239;28;20479;-72
2023/03/22 08:18:21;;;;;;;4.05;1.92;;;;;;;13.98;60.09;95710.56;4973087;28;20023;-71
2023/03/22 08:20:55;;;;;;;3.75;2.78;;;;;;;13.88;59.72;95709.91;4956325;28;20472;-71
2023/03/22 08:23:21;;;;;;;2.70;1.95;;;;;;;13.91;61.51;95709.56;4938739;28;20049;-71
2023/03/22 08:25:47;;;;;;;3.75;2.75;;;;;;;13.64;62.72;95714.13;4970600;28;20328;-72
2023/03/22 08:28:14;;;;;;;3.08;2.60;;;;;;;13.69;62.90;95708.34;4960278;28;20031;-71
2023/03/22 08:30:40;;;;;;;2.50;2.30;;;;;;;13.49;60.46;95713.06;4965252;28;20015;-71
2023/03/22 08:33:06;;;;;;;2.22;1.70;;;;;;;13.54;60.86;95714.25;4957007;28;20190;-72
2023/03/22 08:35:31;;;;;;;1.90;1.80;;;;;;;13.92;59.93;95713.03;4968506;28;20374;-71
2023/03/22 08:37:57;;;;;;;4.68;2.15;;;;;;;13.92;57.71;95711.22;4957856;28;20618;-71
2023/03/22 08:40:22;;;;;;;2.47;2.20;;;;;;;14.12;57.68;95703.78;4949874;28;20492;-72
2023/03/22 08:42:48;;;;;;;1.77;1.55;;;;;;;14.36;55.75;95704.00;4953096;28;20050;-72
2023/03/22 08:45:15;;;;;;;3.50;1.50;;;;;;;14.45;54.63;95705.63;4955658;28;20487;-72
2023/03/22 08:47:40;;;;;;;1.80;1.70;;;;;;;14.39;55.45;95701.00;4967241;28;20071;-73
2023/03/22 08:50:07;;;;;;;5.65;1.95;;;;;;;14.44;52.08;95696.03;4960536;28;20018;-73
2023/03/22 08:52:32;;;;;;;2.00;1.90;;;;;;;14.49;52.19;95693.75;4973853;28;20050;-73
2023/03/22 08:54:58;;;;;;;3.78;1.80;;;;;;;14.67;53.82;95695.34;4968977;28;20023;-73
2023/03/22 08:57:26;;;;;;;2.10;1.90;;;;;;;15.18;48.38;95692.47;4971209;28;20117;-73
2023/03/22 08:59:52;;;;;;;2.28;2.10;;;;;;;14.70;49.63;95687.91;4956122;28;20035;-72
2023/03/22 09:02:18;;;;;;;2.17;2.08;;;;;;;14.40;51.00;95687.63;4959384;28;20059;-73
2023/03/22 09:04:43;;;;;;;2.33;2.00;;;;;;;14.51;51.19;95685.59;4973408;28;20027;-72
2023/03/22 09:07:09;;;;;;;2.05;1.92;;;;;;;14.65;51.04;95681.44;4970254;28;20058;-73
2023/03/22 09:09:35;;;;;;;4.30;2.10;;;;;;;14.97;49.90;95666.53;4956941;28;20023;-72
2023/03/22 09:12:00;;;;;;;2.80;2.60;;;;;;;15.74;46.57;95676.47;4956187;28;20452;-73
2023/03/22 09:14:26;;;;;;;3.00;1.90;;;;;;;15.73;46.51;95672.16;4966773;28;20053;-73
2023/03/22 09:16:51;;;;;;;2.20;2.00;;;;;;;15.46;48.46;95661.03;4956451;28;20501;-73
2023/03/22 09:19:17;;;;;;;2.17;2.08;;;;;;;15.38;49.62;95663.72;4956624;28;20483;-73
2023/03/22 09:21:42;;;;;;;2.42;2.22;;;;;;;15.30;47.89;95661.94;4971757;28;20111;-73
2023/03/22 09:24:07;;;;;;;2.90;2.30;;;;;;;15.31;48.92;95660.09;4965200;28;20029;-73
2023/03/22 09:26:33;;;;;;;3.22;2.08;;;;;;;15.27;48.05;95664.09;4952756;28;20515;-73
2023/03/22 09:28:58;;;;;;;2.03;1.92;;;;;;;15.76;48.14;95660.38;4963368;28;20042;-73
2023/03/22 09:31:24;;;;;;;2.15;2.05;;;;;;;15.84;47.00;95660.31;4952940;28;20114;-73
2023/03/22 09:33:49;;;;;;;2.03;1.85;;;;;;;16.06;47.75;95651.75;4974755;28;20026;-73
2023/03/22 09:36:15;;;;;;;5.13;2.42;;;;;;;16.46;46.23;95652.41;4962888;28;20033;-73
2023/03/22 09:38:41;;;;;;;2.13;1.92;;;;;;;17.07;46.53;95650.69;4964874;28;20480;-73
2023/03/22 09:41:15;;;;;;;3.50;2.17;;;;;;;17.51;44.50;95648.97;4961521;28;20031;-74
2023/03/22 09:43:58;;;;;;;2.22;2.05;;;;;;;17.87;41.91;95648.16;4970967;28;20059;-73
2023/03/22 09:46:32;;;;;;;3.30;2.13;;;;;;;17.96;43.30;95641.69;4973518;28;20030;-74
2023/03/22 09:49:01;;;;;;;1.88;1.77;;;;;;;18.36;42.26;95648.44;4956919;28;20050;-73
2023/03/22 09:51:45;;;;;;;1.88;1.73;;;;;;;17.76;43.16;95647.63;4961157;28;20022;-73
2023/03/22 09:54:20;;;;;;;3.85;1.88;;;;;;;17.62;44.39;95645.84;4955435;28;20027;-73
2023/03/22 09:57:02;;;;;;;4.97;1.88;;;;;;;17.90;41.74;95639.78;4968593;28;20521;-73
2023/03/22 09:59:43;;;;;;;1.90;1.80;;;;;;;18.24;41.03;95643.66;4967126;28;20086;-73
2023/03/22 10:02:38;;;;;;;1.83;1.73;;;;;;;18.61;39.90;95639.00;4974395;28;20020;-73
2023/03/22 10:05:12;;;;;;;2.22;1.95;;;;;;;17.93;40.54;95639.41;4963690;28;20039;-73
2023/03/22 10:07:50;;;;;;;3.05;2.00;;;;;;;18.33;40.83;95638.97;4959858;28;20027;-73
2023/03/22 10:10:18;;;;;;;1.83;1.73;;;;;;;18.59;42.53;95640.25;4971188;28;20039;-73
2023/03/22 10:13:06;;;;;;;1.95;1.85;;;;;;;18.90;39.59;95631.84;4960660;28;20079;-73
2023/03/22 10:15:45;;;;;;;1.77;1.67;;;;;;;19.31;40.27;95632.06;4969943;28;20440;-73
2023/03/22 10:18:20;;;;;;;4.22;1.92;;;;;;;19.37;40.77;95631.28;4972787;28;20027;-73
2023/03/22 10:21:00;;;;;;;2.58;1.65;;;;;;;19.63;39.49;95627.06;4966649;28;20095;-74
2023/03/22 10:23:47;;;;;;;1.58;1.48;;;;;;;19.67;38.64;95630.13;4962741;28;20050;-73
2023/03/22 10:26:20;;;;;;;2.10;1.90;;;;;;;19.75;37.53;95628.09;4971484;28;20604;-73
2023/03/22 10:28:56;;;;;;;1.90;1.80;;;;;;;20.20;39.13;95628.66;4969600;28;20067;-73
2023/03/22 10:31:22;;;;;;;2.15;1.95;;;;;;;19.95;38.67;95624.69;4958994;28;20067;-73
2023/03/22 10:33:53;;;;;;;2.95;1.70;;;;;;;19.75;36.74;95625.44;4961983;28;20039;-73
2023/03/22 10:36:23;;;;;;;1.75;1.65;;;;;;;19.41;36.95;95615.69;4975612;28;20081;-73
2023/03/22 10:38:56;;;;;;;3.30;1.92;;;;;;;19.96;35.03;95615.66;4966246;28;20027;-74
2023/03/22 10:41:24;;;;;;;1.90;1.67;;;;;;;20.46;34.39;95622.50;4972605;28;20027;-73
2023/03/22 10:43:53;;;;;;;4.15;1.75;;;;;;;19.67;35.55;95620.28;4969675;28;20034;-73
2023/03/22 10:46:22;;;;;;;3.75;1.90;;;;;;;19.83;35.72;95621.75;4970801;28;20031;-73
2023/03/22 10:48:50;;;;;;;1.77;1.48;;;;;;;19.88;35.06;95610.47;4969910;28;20051;-74
2023/03/22 10:51:39;;;;;;;3.72;1.60;;;;;;;19.76;35.25;95610.25;4963265;28;20035;-73
2023/03/22 10:54:11;;;;;;;2.75;1.67;;;;;;;19.23;36.25;95611.72;4958493;28;20042;-74
2023/03/22 10:56:36;;;;;;;1.50;1.40;;;;;;;19.74;34.88;95605.09;4954236;28;20034;-73
2023/03/22 10:59:02;;;;;;;2.88;1.63;;;;;;;19.72;33.95;95606.34;4970512;28;20055;-73
2023/03/22 11:01:30;;;;;;;4.13;1.60;;;;;;;19.69;34.27;95602.22;4963688;28;20078;-74
2023/03/22 11:04:07;;;;;;;1.40;1.40;;;;;;;20.10;33.22;95596.97;4972952;28;20046;-73
2023/03/22 11:06:39;;;;;;;1.58;1.50;;;;;;;20.72;33.15;95602.09;4961476;28;20101;-73
2023/03/22 11:09:16;;;;;;;1.50;1.40;;;;;;;20.97;31.88;95591.56;4966259;28;20459;-73
2023/03/22 11:11:53;;;;;;;1.80;1.70;;;;;;;21.41;31.03;95585.66;4956705;28;20023;-73
2023/03/22 11:14:20;;;;;;;2.80;1.40;;;;;;;21.18;31.02;95574.44;4967210;28;20054;-73
2023/03/22 11:16:56;;;;;;;1.60;1.50;;;;;;;21.82;32.33;95559.50;4968744;28;20415;-73
2023/03/22 11:19:26;;;;;;;1.60;1.50;;;;;;;22.46;30.11;95572.84;4971006;28;20131;-73
2023/03/22 11:21:53;;;;;;;2.10;1.90;;;;;;;22.06;31.72;95562.44;4958595;28;20035;-73
2023/03/22 11:24:20;;;;;;;1.55;1.45;;;;;;;21.81;31.71;95550.66;4962915;28;20031;-74
2023/03/22 11:27:17;;;;;;;1.92;1.48;;;;;;;21.67;31.71;95551.78;4962072;28;20047;-73
2023/03/22 11:29:56;;;;;;;1.75;1.63;;;;;;;21.78;31.05;95556.44;4965110;28;20129;-74
2023/03/22 11:32:32;;;;;;;1.95;1.83;;;;;;;21.50;32.70;95546.06;4961074;28;20163;-74
2023/03/22 11:35:03;;;;;;;1.67;1.52;;;;;;;21.86;31.57;95539.28;4972733;28;20038;-73
2023/03/22 11:37:29;;;;;;;1.23;1.20;;;;;;;22.04;31.35;95543.88;4960309;28;20381;-72
2023/03/22 11:40:04;;;;;;;1.55;1.50;;;;;;;21.53;32.92;95537.59;4965320;28;20450;-73